createdAt,value
2022-09-03T00:01:39.011Z,1.13
2022-09-03T00:04:11.192Z,1.17
2022-09-03T00:06:48.241Z,1.30
2022-09-03T00:09:38.732Z,1.23
2022-09-03T00:12:09.006Z,1.40
2022-09-03T00:14:46.843Z,1.20
2022-09-03T00:17:16.983Z,1.20
2022-09-03T00:19:53.150Z,1.20
2022-09-03T00:22:24.642Z,1.10
2022-09-03T00:24:52.874Z,1.10
2022-09-03T00:27:22.027Z,1.23
2022-09-03T00:29:55.840Z,1.10
2022-09-03T00:32:27.842Z,1.20
2022-09-03T00:34:59.032Z,1.20
2022-09-03T00:37:30.051Z,1.20
2022-09-03T00:40:03.626Z,1.40
2022-09-03T00:42:33.695Z,1.20
2022-09-03T00:45:12.764Z,1.20
2022-09-03T00:47:42.725Z,1.27
2022-09-03T00:50:33.210Z,1.30
2022-09-03T00:53:00.367Z,1.20
2022-09-03T00:55:30.895Z,1.20
2022-09-03T00:58:10.061Z,1.30
2022-09-03T01:00:39.611Z,1.33
2022-09-03T01:03:24.852Z,1.13
2022-09-03T01:06:02.069Z,1.10
2022-09-03T01:08:32.352Z,1.30
2022-09-03T01:11:29.089Z,1.30
2022-09-03T01:14:14.688Z,1.30
2022-09-03T01:17:03.394Z,1.30
2022-09-03T01:19:36.547Z,1.20
2022-09-03T01:22:05.333Z,1.20
2022-09-03T01:24:43.634Z,1.20
2022-09-03T01:27:31.023Z,1.37
2022-09-03T01:29:58.406Z,1.30
2022-09-03T01:32:41.791Z,1.10
2022-09-03T01:35:19.294Z,1.20
2022-09-03T01:37:53.135Z,1.13
2022-09-03T01:40:20.244Z,1.13
2022-09-03T01:42:54.504Z,1.30
2022-09-03T01:45:32.116Z,1.20
2022-09-03T01:47:59.294Z,1.20
2022-09-03T01:50:29.192Z,1.30
2022-09-03T01:53:00.124Z,1.27
2022-09-03T01:55:27.252Z,1.30
2022-09-03T01:58:08.740Z,1.33
2022-09-03T02:00:38.031Z,1.40
2022-09-03T02:03:07.043Z,1.20
2022-09-03T02:05:35.206Z,1.03
2022-09-03T02:08:04.322Z,1.30
2022-09-03T02:10:48.042Z,1.30
2022-09-03T02:13:31.043Z,1.20
2022-09-03T02:16:00.948Z,1.30
2022-09-03T02:18:31.570Z,1.33
2022-09-03T02:20:59.828Z,1.20
2022-09-03T02:23:28.640Z,1.40
2022-09-03T02:26:00.999Z,1.30
2022-09-03T02:28:30.096Z,1.10
2022-09-03T02:30:57.537Z,1.30
2022-09-03T02:33:25.477Z,1.23
2022-09-03T02:35:53.227Z,1.10
2022-09-03T02:38:21.673Z,1.17
2022-09-03T02:40:49.274Z,1.30
2022-09-03T02:43:21.405Z,1.20
2022-09-03T02:45:55.351Z,1.33
2022-09-03T02:48:24.422Z,1.10
2022-09-03T02:50:51.887Z,1.10
2022-09-03T02:53:19.036Z,1.20
2022-09-03T02:55:46.359Z,1.20
2022-09-03T02:58:13.553Z,1.20
2022-09-03T03:00:40.715Z,1.10
2022-09-03T03:03:07.913Z,1.17
2022-09-03T03:05:44.579Z,1.20
2022-09-03T03:08:15.197Z,1.10
2022-09-03T03:10:45.068Z,1.20
2022-09-03T03:13:12.723Z,1.00
2022-09-03T03:15:39.875Z,1.20
2022-09-03T03:18:07.860Z,1.20
2022-09-03T03:20:35.140Z,1.43
2022-09-03T03:23:04.084Z,0.97
2022-09-03T03:25:32.802Z,1.20
2022-09-03T03:28:00.410Z,1.10
2022-09-03T03:30:28.322Z,1.27
2022-09-03T03:32:55.767Z,1.20
2022-09-03T03:35:22.935Z,1.10
2022-09-03T03:37:50.157Z,1.00
2022-09-03T03:40:17.798Z,1.23
2022-09-03T03:42:44.927Z,1.20
2022-09-03T03:45:12.144Z,1.00
2022-09-03T03:47:39.324Z,1.30
2022-09-03T03:50:06.838Z,1.20
2022-09-03T03:52:34.211Z,1.10
2022-09-03T03:55:01.443Z,1.20
2022-09-03T03:57:30.734Z,1.13
2022-09-03T03:59:57.957Z,1.07
2022-09-03T04:02:25.519Z,1.10
2022-09-03T04:04:52.701Z,1.20
2022-09-03T04:07:19.929Z,1.20
2022-09-03T04:09:47.702Z,1.20
2022-09-03T04:12:15.172Z,1.30
2022-09-03T04:14:43.026Z,1.10
2022-09-03T04:17:10.397Z,1.33
2022-09-03T04:19:38.227Z,1.17
2022-09-03T04:22:05.431Z,1.10
2022-09-03T04:24:32.582Z,1.07
2022-09-03T04:26:59.798Z,1.20
2022-09-03T04:29:27.138Z,1.20
2022-09-03T04:32:13.174Z,1.00
2022-09-03T04:34:40.322Z,1.00
2022-09-03T04:37:07.460Z,1.10
2022-09-03T04:39:34.642Z,1.20
2022-09-03T04:42:01.823Z,1.20
2022-09-03T04:44:29.012Z,1.23
2022-09-03T04:46:56.160Z,1.10
2022-09-03T04:49:24.988Z,1.20
2022-09-03T04:51:52.117Z,1.17
2022-09-03T04:54:19.243Z,1.00
2022-09-03T04:56:46.415Z,1.20
2022-09-03T04:59:13.749Z,1.10
2022-09-03T05:01:41.457Z,1.07
2022-09-03T05:04:08.967Z,1.00
2022-09-03T05:06:37.352Z,1.20
2022-09-03T05:09:05.253Z,1.20
2022-09-03T05:11:32.570Z,1.07
2022-09-03T05:14:00.844Z,0.90
2022-09-03T05:16:30.099Z,1.47
2022-09-03T05:18:59.659Z,1.10
2022-09-03T05:21:26.983Z,1.10
2022-09-03T05:23:54.221Z,1.07
2022-09-03T05:26:24.778Z,1.00
2022-09-03T05:28:59.728Z,0.90
2022-09-03T05:31:28.325Z,1.10
2022-09-03T05:33:58.528Z,1.30
2022-09-03T05:36:26.380Z,1.27
2022-09-03T05:38:58.416Z,1.10
2022-09-03T05:41:26.594Z,1.00
2022-09-03T05:43:59.462Z,1.20
2022-09-03T05:46:37.521Z,1.00
2022-09-03T05:49:06.258Z,1.00
2022-09-03T05:51:35.028Z,0.90
2022-09-03T05:54:03.006Z,0.97
2022-09-03T05:56:31.647Z,1.03
2022-09-03T05:59:01.934Z,0.90
2022-09-03T06:01:31.083Z,0.90
2022-09-03T06:03:59.555Z,0.90
2022-09-03T06:06:27.792Z,1.00
2022-09-03T06:08:58.964Z,1.17
2022-09-03T06:11:28.274Z,1.10
2022-09-03T06:14:00.221Z,1.03
2022-09-03T06:16:30.521Z,0.90
2022-09-03T06:18:59.803Z,1.00
2022-09-03T06:21:27.244Z,0.93
2022-09-03T06:23:59.569Z,0.90
2022-09-03T06:26:28.705Z,1.10
2022-09-03T06:28:57.267Z,1.00
2022-09-03T06:31:24.998Z,0.77
2022-09-03T06:33:54.574Z,0.87
2022-09-03T06:36:22.737Z,0.90
2022-09-03T06:38:52.168Z,0.83
2022-09-03T06:41:21.095Z,0.83
2022-09-03T06:43:49.326Z,0.90
2022-09-03T06:46:17.756Z,0.80
2022-09-03T06:48:45.805Z,0.80
2022-09-03T06:51:15.825Z,0.83
2022-09-03T06:53:44.254Z,0.80
2022-09-03T06:56:13.053Z,0.83
2022-09-03T06:58:41.982Z,0.90
2022-09-03T07:01:10.835Z,0.80
2022-09-03T07:03:38.867Z,0.80
2022-09-03T07:06:07.167Z,0.70
2022-09-03T07:08:34.739Z,1.00
2022-09-03T07:11:09.283Z,0.90
2022-09-03T07:13:41.211Z,1.00
2022-09-03T07:16:09.695Z,1.00
2022-09-03T07:18:37.468Z,0.83
2022-09-03T07:21:06.196Z,0.90
2022-09-03T07:23:33.776Z,0.60
2022-09-03T07:26:02.134Z,0.90
2022-09-03T07:28:30.079Z,0.90
2022-09-03T07:31:02.374Z,0.90
2022-09-03T07:33:33.796Z,0.97
2022-09-03T07:36:08.154Z,0.80
2022-09-03T07:38:35.893Z,1.00
2022-09-03T07:41:04.692Z,0.80
2022-09-03T07:43:35.738Z,0.90
2022-09-03T07:46:02.914Z,0.80
2022-09-03T07:48:36.713Z,0.90
2022-09-03T07:51:04.535Z,1.00
2022-09-03T07:53:31.713Z,0.90
2022-09-03T07:56:06.091Z,1.10
2022-09-03T07:58:33.856Z,0.77
2022-09-03T08:01:05.167Z,1.10
2022-09-03T08:03:32.673Z,0.80
2022-09-03T08:06:03.661Z,0.80
2022-09-03T08:08:35.555Z,1.13
2022-09-03T08:11:10.850Z,0.87
2022-09-03T08:13:45.760Z,1.10
2022-09-03T08:16:13.885Z,0.80
2022-09-03T08:18:41.298Z,0.70
2022-09-03T08:21:09.638Z,0.80
2022-09-03T08:23:40.329Z,1.20
2022-09-03T08:26:07.841Z,1.03
2022-09-03T08:28:36.255Z,1.07
2022-09-03T08:31:17.677Z,0.87
2022-09-03T08:33:46.054Z,0.80
2022-09-03T08:36:18.226Z,0.90
2022-09-03T08:38:46.857Z,0.73
2022-09-03T08:41:18.060Z,1.47
2022-09-03T08:44:03.700Z,0.93
2022-09-03T08:46:39.792Z,1.13
2022-09-03T08:49:07.980Z,0.90
2022-09-03T08:51:39.168Z,0.90
2022-09-03T08:54:08.438Z,0.70
2022-09-03T08:56:38.586Z,0.90
2022-09-03T08:59:05.935Z,1.00
2022-09-03T09:01:44.104Z,0.93
2022-09-03T09:04:29.249Z,0.93
2022-09-03T09:07:12.140Z,0.90
2022-09-03T09:09:49.031Z,0.83
2022-09-03T09:12:16.268Z,0.80
2022-09-03T09:15:02.643Z,1.00
2022-09-03T09:17:48.358Z,0.80
2022-09-03T09:20:29.945Z,0.70
2022-09-03T09:23:00.209Z,0.90
2022-09-03T09:25:27.547Z,1.00
2022-09-03T09:27:55.036Z,0.90
2022-09-03T09:30:22.197Z,1.10
2022-09-03T09:32:49.800Z,0.90
2022-09-03T09:35:18.052Z,0.98
2022-09-03T09:38:03.123Z,1.10
2022-09-03T09:40:33.870Z,0.98
2022-09-03T09:43:08.082Z,0.93
2022-09-03T09:45:35.763Z,1.00
2022-09-03T09:48:04.093Z,0.85
2022-09-03T09:50:31.332Z,1.00
2022-09-03T09:53:14.264Z,0.95
2022-09-03T09:55:55.109Z,0.82
2022-09-03T09:58:23.928Z,1.00
2022-09-03T10:01:13.156Z,1.00
2022-09-03T10:03:43.527Z,1.00
2022-09-03T10:06:33.404Z,0.90
2022-09-03T10:09:11.346Z,0.80
2022-09-03T10:11:40.530Z,1.10
2022-09-03T10:14:11.070Z,1.10
2022-09-03T10:16:48.944Z,1.08
2022-09-03T10:19:17.821Z,0.93
2022-09-03T10:22:00.052Z,1.05
2022-09-03T10:24:34.204Z,0.90
2022-09-03T10:27:01.785Z,1.02
2022-09-03T10:29:30.120Z,1.10
2022-09-03T10:31:57.300Z,1.08
2022-09-03T10:34:34.179Z,1.08
2022-09-03T10:37:08.032Z,0.90
2022-09-03T10:39:42.789Z,0.93
2022-09-03T10:42:22.170Z,0.93
2022-09-03T10:45:01.852Z,0.93
2022-09-03T10:47:49.472Z,0.90
2022-09-03T10:50:43.146Z,0.90
2022-09-03T10:53:13.338Z,0.93
2022-09-03T10:55:59.705Z,0.90
2022-09-03T10:58:48.959Z,1.00
2022-09-03T11:01:25.705Z,0.90
2022-09-03T11:04:14.375Z,0.90
2022-09-03T11:06:47.814Z,1.08
2022-09-03T11:09:18.512Z,0.95
2022-09-03T11:11:52.282Z,1.00
2022-09-03T11:14:28.909Z,1.10
2022-09-03T11:17:00.495Z,1.10
2022-09-03T11:19:33.984Z,0.90
2022-09-03T11:22:01.416Z,1.05
2022-09-03T11:24:33.035Z,1.10
2022-09-03T11:27:20.456Z,1.10
2022-09-03T11:29:53.996Z,0.93
2022-09-03T11:32:41.543Z,1.08
2022-09-03T11:35:25.293Z,1.00
2022-09-03T11:37:58.700Z,1.10
2022-09-03T11:40:48.929Z,1.30
2022-09-03T11:43:25.295Z,1.20
2022-09-03T11:46:04.981Z,1.10
2022-09-03T11:48:58.739Z,0.90
2022-09-03T11:51:25.867Z,1.00
2022-09-03T11:53:57.445Z,0.90
2022-09-03T11:56:25.260Z,0.85
2022-09-03T11:59:04.487Z,1.02
2022-09-03T12:01:32.763Z,1.05
2022-09-03T12:04:05.466Z,1.00
2022-09-03T12:06:35.464Z,1.10
2022-09-03T12:09:02.595Z,1.00
2022-09-03T12:11:36.033Z,0.95
2022-09-03T12:14:13.930Z,1.05
2022-09-03T12:16:58.346Z,1.13
2022-09-03T12:19:33.145Z,1.13
2022-09-03T12:22:03.052Z,1.25
2022-09-03T12:24:37.717Z,1.00
2022-09-03T12:27:05.677Z,1.10
2022-09-03T12:29:32.863Z,1.10
2022-09-03T12:32:07.476Z,1.15
2022-09-03T12:34:34.736Z,1.17
2022-09-03T12:37:02.058Z,1.25
2022-09-03T12:42:24.399Z,1.10
2022-09-03T12:44:51.581Z,1.00
2022-09-03T12:47:37.133Z,1.05
2022-09-03T12:50:12.432Z,1.23
2022-09-03T12:52:48.952Z,0.95
2022-09-03T12:55:34.227Z,0.90
2022-09-03T12:58:14.416Z,1.00
2022-09-03T13:00:58.930Z,1.00
2022-09-03T13:03:36.164Z,1.10
2022-09-03T13:06:07.087Z,1.10
2022-09-03T13:08:38.021Z,0.90
2022-09-03T13:11:05.659Z,1.02
2022-09-03T13:13:37.136Z,1.10
2022-09-03T13:16:10.029Z,1.10
2022-09-03T13:18:46.154Z,1.10
2022-09-03T13:21:21.522Z,1.17
2022-09-03T13:23:54.305Z,1.10
2022-09-03T13:26:44.369Z,1.00
2022-09-03T13:29:18.263Z,1.00
2022-09-03T13:31:47.476Z,1.05
2022-09-03T13:34:27.978Z,1.08
2022-09-03T13:36:58.280Z,1.10
2022-09-03T13:39:29.494Z,1.30
2022-09-03T13:42:09.076Z,0.95
2022-09-03T13:44:41.728Z,1.20
2022-09-03T13:47:09.179Z,1.05
2022-09-03T13:50:10.206Z,1.10
2022-09-03T13:52:43.054Z,1.10
2022-09-03T13:55:13.553Z,0.85
2022-09-03T13:57:46.859Z,0.80
2022-09-03T14:00:25.068Z,1.20
2022-09-03T14:03:13.060Z,1.00
2022-09-03T14:05:46.401Z,1.05
2022-09-03T14:08:24.355Z,1.00
2022-09-03T14:11:15.388Z,1.00
2022-09-03T14:13:45.351Z,0.82
2022-09-03T14:16:38.984Z,1.15
2022-09-03T14:19:11.596Z,1.00
2022-09-03T14:21:46.093Z,1.15
2022-09-03T14:24:13.402Z,1.00
2022-09-03T14:26:50.542Z,1.20
2022-09-03T14:29:18.358Z,1.13
2022-09-03T14:32:04.586Z,0.90
2022-09-03T14:34:53.167Z,1.10
2022-09-03T14:37:40.721Z,1.15
2022-09-03T14:40:13.871Z,1.17
2022-09-03T14:42:53.025Z,1.00
2022-09-03T14:45:39.058Z,1.00
2022-09-03T14:48:26.615Z,1.20
2022-09-03T14:50:57.171Z,1.13
2022-09-03T14:53:27.196Z,1.05
2022-09-03T14:56:13.876Z,1.08
2022-09-03T14:58:44.035Z,1.00
2022-09-03T15:01:11.948Z,1.00
2022-09-03T15:03:48.455Z,1.05
2022-09-03T15:06:19.138Z,1.33
2022-09-03T15:09:37.200Z,1.05
2022-09-03T15:12:09.312Z,1.02
2022-09-03T15:14:51.673Z,1.15
2022-09-03T15:17:37.439Z,1.10
2022-09-03T15:20:20.246Z,0.90
2022-09-03T15:22:53.450Z,1.00
2022-09-03T15:25:43.740Z,1.10
2022-09-03T15:28:11.733Z,0.90
2022-09-03T15:30:59.162Z,0.90
2022-09-03T15:33:26.734Z,1.10
2022-09-03T15:36:14.950Z,1.00
2022-09-03T15:38:51.292Z,1.00
2022-09-03T15:41:24.127Z,1.00
2022-09-03T15:43:51.882Z,1.10
2022-09-03T15:46:36.181Z,0.85
2022-09-03T15:49:09.000Z,1.02
2022-09-03T15:51:50.288Z,0.82
2022-09-03T15:54:20.723Z,1.42
2022-09-03T15:56:54.275Z,1.30
2022-09-03T15:59:40.645Z,1.20
2022-09-03T16:02:21.889Z,0.90
2022-09-03T16:05:07.098Z,1.30
2022-09-03T16:07:34.677Z,1.10
2022-09-03T16:10:24.155Z,1.17
2022-09-03T16:13:11.010Z,0.80
2022-09-03T16:15:48.699Z,1.20
2022-09-03T16:18:34.751Z,1.20
2022-09-03T16:21:05.695Z,0.90
2022-09-03T16:23:47.712Z,1.10
2022-09-03T16:26:19.676Z,1.10
2022-09-03T16:28:52.882Z,1.13
2022-09-03T16:31:25.835Z,1.20
2022-09-03T16:33:57.587Z,1.00
2022-09-03T16:36:45.516Z,1.50
2022-09-03T16:39:21.648Z,1.40
2022-09-03T16:41:51.857Z,1.40
2022-09-03T16:44:25.149Z,1.13
2022-09-03T16:47:00.206Z,0.90
2022-09-03T16:49:31.916Z,1.30
2022-09-03T16:52:05.108Z,1.15
2022-09-03T16:54:57.083Z,1.35
2022-09-03T16:57:43.583Z,1.08
2022-09-03T17:00:13.120Z,1.27
2022-09-03T17:02:42.074Z,1.10
2022-09-03T17:05:09.526Z,1.20
2022-09-03T17:07:58.320Z,1.00
2022-09-03T17:10:35.712Z,1.05
2022-09-03T17:13:11.751Z,1.10
2022-09-03T17:15:46.179Z,1.08
2022-09-03T17:18:25.388Z,1.00
2022-09-03T17:21:11.133Z,1.30
2022-09-03T17:23:49.653Z,1.27
2022-09-03T17:26:16.803Z,1.10
2022-09-03T17:28:58.933Z,1.30
2022-09-03T17:31:29.185Z,1.20
2022-09-03T17:34:15.723Z,1.00
2022-09-03T17:36:54.112Z,1.27
2022-09-03T17:39:30.994Z,1.15
2022-09-03T17:42:16.992Z,1.23
2022-09-03T17:44:51.429Z,1.30
2022-09-03T17:47:48.997Z,1.00
2022-09-03T17:50:23.866Z,1.45
2022-09-03T17:52:55.503Z,1.20
2022-09-03T17:55:28.602Z,1.30
2022-09-03T17:58:10.753Z,1.40
2022-09-03T18:00:45.884Z,1.50
2022-09-03T18:03:18.863Z,1.27
2022-09-03T18:06:01.027Z,1.50
2022-09-03T18:08:31.045Z,1.23
2022-09-03T18:11:07.275Z,1.37
2022-09-03T18:13:46.965Z,1.33
2022-09-03T18:16:28.496Z,1.23
2022-09-03T18:19:01.083Z,1.30
2022-09-03T18:21:49.256Z,1.13
2022-09-03T18:24:51.025Z,1.20
2022-09-03T18:27:42.228Z,1.30
2022-09-03T18:30:30.281Z,1.40
2022-09-03T18:33:16.740Z,1.20
2022-09-03T18:36:03.401Z,1.30
2022-09-03T18:38:50.851Z,1.20
2022-09-03T18:41:55.248Z,1.30
2022-09-03T18:44:57.842Z,1.63
2022-09-03T18:48:06.863Z,1.70
2022-09-03T18:51:12.186Z,1.60
2022-09-03T18:54:05.790Z,1.80
2022-09-03T18:57:06.592Z,1.57
2022-09-03T19:00:11.148Z,1.80
2022-09-03T19:02:57.258Z,1.50
2022-09-03T19:06:02.420Z,1.60
2022-09-03T19:08:56.556Z,1.47
2022-09-03T19:11:51.187Z,1.70
2022-09-03T19:14:55.597Z,1.83
2022-09-03T19:18:13.378Z,1.93
2022-09-03T19:21:01.632Z,2.00
2022-09-03T19:23:47.544Z,1.87
2022-09-03T19:26:36.218Z,2.00
2022-09-03T19:29:27.274Z,2.43
2022-09-03T19:32:16.543Z,2.10
2022-09-03T19:35:21.103Z,2.10
2022-09-03T19:38:06.978Z,2.10
2022-09-03T19:40:58.583Z,2.30
2022-09-03T19:43:47.361Z,2.10
2022-09-03T19:46:41.754Z,2.03
2022-09-03T19:49:54.648Z,1.93
2022-09-03T19:52:49.250Z,1.77
2022-09-03T19:55:46.473Z,1.80
2022-09-03T19:58:43.718Z,2.03
2022-09-03T20:01:30.315Z,1.93
2022-09-03T20:04:17.861Z,2.10
2022-09-03T20:07:04.913Z,2.20
2022-09-03T20:09:54.513Z,1.80
2022-09-03T20:12:24.722Z,2.10
2022-09-03T20:14:51.899Z,2.50
2022-09-03T20:17:23.930Z,2.30
2022-09-03T20:20:00.333Z,2.27
2022-09-03T20:22:50.382Z,1.93
2022-09-03T20:25:20.345Z,2.20
2022-09-03T20:27:50.403Z,2.20
2022-09-03T20:30:19.572Z,2.77
2022-09-03T20:32:52.349Z,2.70
2022-09-03T20:35:41.525Z,2.20
2022-09-03T20:38:20.656Z,2.20
2022-09-03T20:40:50.573Z,2.33
2022-09-03T20:43:36.487Z,2.10
2022-09-03T20:46:16.054Z,1.70
2022-09-03T20:48:43.371Z,2.20
2022-09-03T20:51:22.983Z,2.07
2022-09-03T20:54:08.664Z,1.80
2022-09-03T20:56:54.891Z,1.80
2022-09-03T20:59:28.832Z,1.80
2022-09-03T21:02:11.022Z,1.83
2022-09-03T21:04:38.176Z,1.93
2022-09-03T21:07:14.116Z,1.70
2022-09-03T21:09:51.286Z,1.80
2022-09-03T21:12:20.009Z,1.70
2022-09-03T21:15:01.851Z,1.60
2022-09-03T21:17:31.750Z,1.53
2022-09-03T21:20:18.274Z,1.70
2022-09-03T21:23:00.459Z,1.80
2022-09-03T21:25:31.605Z,1.60
2022-09-03T21:28:14.106Z,1.47
2022-09-03T21:30:42.759Z,1.40
2022-09-03T21:33:14.757Z,1.50
2022-09-03T21:35:54.240Z,1.30
2022-09-03T21:38:22.739Z,1.50
2022-09-03T21:41:00.794Z,1.50
2022-09-03T21:43:33.044Z,1.40
2022-09-03T21:46:04.407Z,1.60
2022-09-03T21:48:38.412Z,1.67
2022-09-03T21:51:10.109Z,1.50
2022-09-03T21:53:40.230Z,1.53
2022-09-03T21:56:10.143Z,1.50
2022-09-03T21:59:07.007Z,1.50
2022-09-03T22:01:39.047Z,1.70
2022-09-03T22:04:06.284Z,1.57
2022-09-03T22:06:49.237Z,2.03
2022-09-03T22:09:24.367Z,1.90
2022-09-03T22:12:00.729Z,1.70
2022-09-03T22:14:30.261Z,1.70
2022-09-03T22:17:02.996Z,1.50
2022-09-03T22:19:37.626Z,1.70
2022-09-03T22:22:09.151Z,1.60
2022-09-03T22:24:36.287Z,1.70
2022-09-03T22:27:10.915Z,1.60
2022-09-03T22:29:38.117Z,1.50
2022-09-03T22:32:25.569Z,1.53
2022-09-03T22:34:52.710Z,1.40
2022-09-03T22:37:40.112Z,1.60
2022-09-03T22:40:13.181Z,1.50
2022-09-03T22:42:46.411Z,1.60
2022-09-03T22:45:21.147Z,1.50
2022-09-03T22:47:59.872Z,1.50
2022-09-03T22:50:32.852Z,1.73
2022-09-03T22:53:10.323Z,1.80
2022-09-03T22:55:41.823Z,1.87
2022-09-03T22:58:08.932Z,1.60
2022-09-03T23:00:40.985Z,1.67
2022-09-03T23:03:09.139Z,1.80
2022-09-03T23:05:39.704Z,1.70
2022-09-03T23:08:15.418Z,1.67
2022-09-03T23:10:45.519Z,1.70
2022-09-03T23:13:17.385Z,1.60
2022-09-03T23:15:46.769Z,1.70
2022-09-03T23:18:19.581Z,1.97
2022-09-03T23:21:06.124Z,1.80
2022-09-03T23:23:38.280Z,1.60
2022-09-03T23:26:13.432Z,1.40
2022-09-03T23:28:46.141Z,1.63
2022-09-03T23:31:19.213Z,1.60
2022-09-03T23:33:46.807Z,1.77
2022-09-03T23:36:27.038Z,1.47
2022-09-03T23:39:16.057Z,1.50
2022-09-03T23:42:06.279Z,1.60
2022-09-03T23:44:54.163Z,1.50
2022-09-03T23:47:30.309Z,1.53
2022-09-03T23:50:07.118Z,1.40
2022-09-03T23:52:50.009Z,1.50
2022-09-03T23:55:21.778Z,1.37
2022-09-03T23:57:54.341Z,1.80
